sensor_id;sensor_type;location;lat;lon;timestamp;P1;durP1;ratioP1;P2;durP2;ratioP2
49948;SDS011;35840;45.982;8.890;2023-12-20T00:02:15;7.40;;;3.42;;
49948;SDS011;35840;45.982;8.890;2023-12-20T00:04:42;8.07;;;3.33;;
49948;SDS011;35840;45.982;8.890;2023-12-20T00:07:10;5.22;;;3.40;;
49948;SDS011;35840;45.982;8.890;2023-12-20T00:09:36;6.03;;;3.17;;
49948;SDS011;35840;45.982;8.890;2023-12-20T00:12:03;8.40;;;3.22;;
49948;SDS011;35840;45.982;8.890;2023-12-20T00:14:30;7.03;;;3.00;;
49948;SDS011;35840;45.982;8.890;2023-12-20T00:16:57;4.20;;;2.80;;
49948;SDS011;35840;45.982;8.890;2023-12-20T00:19:24;6.00;;;2.92;;
49948;SDS011;35840;45.982;8.890;2023-12-20T00:21:51;6.35;;;3.58;;
49948;SDS011;35840;45.982;8.890;2023-12-20T00:24:17;5.20;;;2.90;;
49948;SDS011;35840;45.982;8.890;2023-12-20T00:26:45;3.63;;;2.10;;
49948;SDS011;35840;45.982;8.890;2023-12-20T00:29:11;5.63;;;2.40;;
49948;SDS011;35840;45.982;8.890;2023-12-20T00:31:38;2.97;;;1.90;;
49948;SDS011;35840;45.982;8.890;2023-12-20T00:34:05;3.65;;;2.33;;
49948;SDS011;35840;45.982;8.890;2023-12-20T00:36:32;4.45;;;2.42;;
49948;SDS011;35840;45.982;8.890;2023-12-20T00:38:59;3.55;;;2.35;;
49948;SDS011;35840;45.982;8.890;2023-12-20T00:41:25;3.60;;;2.40;;
49948;SDS011;35840;45.982;8.890;2023-12-20T00:43:52;3.03;;;1.90;;
49948;SDS011;35840;45.982;8.890;2023-12-20T00:46:19;3.25;;;2.10;;
49948;SDS011;35840;45.982;8.890;2023-12-20T00:48:46;5.68;;;1.85;;
49948;SDS011;35840;45.982;8.890;2023-12-20T00:51:13;4.63;;;1.80;;
49948;SDS011;35840;45.982;8.890;2023-12-20T00:53:40;3.00;;;2.10;;
49948;SDS011;35840;45.982;8.890;2023-12-20T00:56:07;2.75;;;1.48;;
49948;SDS011;35840;45.982;8.890;2023-12-20T00:58:34;2.00;;;1.52;;
49948;SDS011;35840;45.982;8.890;2023-12-20T01:01:01;4.28;;;2.10;;
49948;SDS011;35840;45.982;8.890;2023-12-20T01:03:28;2.53;;;1.65;;
49948;SDS011;35840;45.982;8.890;2023-12-20T01:05:55;3.97;;;1.65;;
49948;SDS011;35840;45.982;8.890;2023-12-20T01:08:22;3.15;;;2.00;;
49948;SDS011;35840;45.982;8.890;2023-12-20T01:10:49;4.90;;;2.15;;
49948;SDS011;35840;45.982;8.890;2023-12-20T01:13:16;2.67;;;1.95;;
49948;SDS011;35840;45.982;8.890;2023-12-20T01:15:43;2.60;;;1.90;;
49948;SDS011;35840;45.982;8.890;2023-12-20T01:18:09;4.25;;;2.15;;
49948;SDS011;35840;45.982;8.890;2023-12-20T01:20:36;3.80;;;2.22;;
49948;SDS011;35840;45.982;8.890;2023-12-20T01:23:03;3.45;;;1.98;;
49948;SDS011;35840;45.982;8.890;2023-12-20T01:25:30;7.55;;;2.67;;
49948;SDS011;35840;45.982;8.890;2023-12-20T01:27:57;5.25;;;2.70;;
49948;SDS011;35840;45.982;8.890;2023-12-20T01:30:24;4.63;;;2.53;;
49948;SDS011;35840;45.982;8.890;2023-12-20T01:32:51;6.22;;;2.40;;
49948;SDS011;35840;45.982;8.890;2023-12-20T01:35:18;4.63;;;2.53;;
49948;SDS011;35840;45.982;8.890;2023-12-20T01:37:45;3.42;;;2.38;;
49948;SDS011;35840;45.982;8.890;2023-12-20T01:40:12;4.53;;;2.78;;
49948;SDS011;35840;45.982;8.890;2023-12-20T01:42:39;4.80;;;3.30;;
49948;SDS011;35840;45.982;8.890;2023-12-20T01:45:06;5.28;;;2.72;;
49948;SDS011;35840;45.982;8.890;2023-12-20T01:47:33;4.78;;;2.83;;
49948;SDS011;35840;45.982;8.890;2023-12-20T01:50:00;5.00;;;2.95;;
49948;SDS011;35840;45.982;8.890;2023-12-20T01:52:30;5.80;;;3.20;;
49948;SDS011;35840;45.982;8.890;2023-12-20T01:55:00;5.55;;;3.45;;
49948;SDS011;35840;45.982;8.890;2023-12-20T01:57:30;5.20;;;2.95;;
49948;SDS011;35840;45.982;8.890;2023-12-20T01:59:57;6.32;;;3.63;;
49948;SDS011;35840;45.982;8.890;2023-12-20T02:02:25;8.57;;;3.72;;
49948;SDS011;35840;45.982;8.890;2023-12-20T02:04:53;6.63;;;3.65;;
49948;SDS011;35840;45.982;8.890;2023-12-20T02:07:21;4.85;;;3.35;;
49948;SDS011;35840;45.982;8.890;2023-12-20T02:09:49;5.53;;;3.25;;
49948;SDS011;35840;45.982;8.890;2023-12-20T02:12:16;6.50;;;3.20;;
49948;SDS011;35840;45.982;8.890;2023-12-20T02:14:43;10.43;;;4.13;;
49948;SDS011;35840;45.982;8.890;2023-12-20T02:17:10;6.13;;;3.63;;
49948;SDS011;35840;45.982;8.890;2023-12-20T02:19:37;5.65;;;3.20;;
49948;SDS011;35840;45.982;8.890;2023-12-20T02:24:33;3.90;;;2.70;;
49948;SDS011;35840;45.982;8.890;2023-12-20T02:27:00;5.18;;;3.25;;
49948;SDS011;35840;45.982;8.890;2023-12-20T02:29:27;4.20;;;2.95;;
49948;SDS011;35840;45.982;8.890;2023-12-20T02:31:54;5.60;;;3.08;;
49948;SDS011;35840;45.982;8.890;2023-12-20T02:34:20;5.60;;;3.00;;
49948;SDS011;35840;45.982;8.890;2023-12-20T02:36:47;3.97;;;3.03;;
49948;SDS011;35840;45.982;8.890;2023-12-20T02:39:14;4.80;;;2.80;;
49948;SDS011;35840;45.982;8.890;2023-12-20T02:41:41;6.28;;;3.40;;
49948;SDS011;35840;45.982;8.890;2023-12-20T02:44:08;3.42;;;2.83;;
49948;SDS011;35840;45.982;8.890;2023-12-20T02:46:35;3.88;;;3.05;;
49948;SDS011;35840;45.982;8.890;2023-12-20T02:49:01;6.57;;;3.45;;
49948;SDS011;35840;45.982;8.890;2023-12-20T02:51:28;6.10;;;3.10;;
49948;SDS011;35840;45.982;8.890;2023-12-20T02:53:55;5.00;;;3.30;;
49948;SDS011;35840;45.982;8.890;2023-12-20T02:56:22;4.57;;;2.80;;
49948;SDS011;35840;45.982;8.890;2023-12-20T02:58:49;5.40;;;3.15;;
49948;SDS011;35840;45.982;8.890;2023-12-20T03:01:16;4.30;;;3.20;;
49948;SDS011;35840;45.982;8.890;2023-12-20T03:03:42;7.45;;;3.70;;
49948;SDS011;35840;45.982;8.890;2023-12-20T03:06:09;8.05;;;3.55;;
49948;SDS011;35840;45.982;8.890;2023-12-20T03:08:36;6.93;;;3.97;;
49948;SDS011;35840;45.982;8.890;2023-12-20T03:11:03;6.60;;;3.70;;
49948;SDS011;35840;45.982;8.890;2023-12-20T03:13:30;4.80;;;3.00;;
49948;SDS011;35840;45.982;8.890;2023-12-20T03:15:56;5.55;;;3.78;;
49948;SDS011;35840;45.982;8.890;2023-12-20T03:18:23;6.00;;;3.42;;
49948;SDS011;35840;45.982;8.890;2023-12-20T03:20:50;5.38;;;3.63;;
49948;SDS011;35840;45.982;8.890;2023-12-20T03:23:18;4.90;;;3.03;;
49948;SDS011;35840;45.982;8.890;2023-12-20T03:25:45;3.88;;;3.20;;
49948;SDS011;35840;45.982;8.890;2023-12-20T03:28:14;6.35;;;3.40;;
49948;SDS011;35840;45.982;8.890;2023-12-20T03:30:41;7.93;;;3.35;;
49948;SDS011;35840;45.982;8.890;2023-12-20T03:33:08;4.45;;;2.85;;
49948;SDS011;35840;45.982;8.890;2023-12-20T03:35:35;5.45;;;3.42;;
49948;SDS011;35840;45.982;8.890;2023-12-20T03:38:02;6.60;;;2.85;;
49948;SDS011;35840;45.982;8.890;2023-12-20T03:40:29;5.07;;;3.20;;
49948;SDS011;35840;45.982;8.890;2023-12-20T03:42:56;3.67;;;2.30;;
49948;SDS011;35840;45.982;8.890;2023-12-20T03:45:23;5.53;;;3.10;;
49948;SDS011;35840;45.982;8.890;2023-12-20T03:47:51;4.18;;;2.80;;
49948;SDS011;35840;45.982;8.890;2023-12-20T03:50:24;3.78;;;2.58;;
49948;SDS011;35840;45.982;8.890;2023-12-20T03:52:52;3.90;;;2.38;;
49948;SDS011;35840;45.982;8.890;2023-12-20T03:55:19;6.47;;;3.00;;
49948;SDS011;35840;45.982;8.890;2023-12-20T03:57:46;4.63;;;2.95;;
49948;SDS011;35840;45.982;8.890;2023-12-20T04:00:13;4.40;;;2.80;;
49948;SDS011;35840;45.982;8.890;2023-12-20T04:02:41;5.32;;;2.58;;
49948;SDS011;35840;45.982;8.890;2023-12-20T04:05:08;5.10;;;2.33;;
49948;SDS011;35840;45.982;8.890;2023-12-20T04:07:36;5.18;;;2.78;;
49948;SDS011;35840;45.982;8.890;2023-12-20T04:10:03;3.17;;;2.10;;
49948;SDS011;35840;45.982;8.890;2023-12-20T04:12:30;5.60;;;3.63;;
49948;SDS011;35840;45.982;8.890;2023-12-20T04:14:57;4.10;;;2.50;;
49948;SDS011;35840;45.982;8.890;2023-12-20T04:17:24;5.07;;;2.88;;
49948;SDS011;35840;45.982;8.890;2023-12-20T04:19:51;3.22;;;2.22;;
49948;SDS011;35840;45.982;8.890;2023-12-20T04:22:18;4.90;;;2.35;;
49948;SDS011;35840;45.982;8.890;2023-12-20T04:24:46;2.90;;;2.15;;
49948;SDS011;35840;45.982;8.890;2023-12-20T04:27:13;3.55;;;2.30;;
49948;SDS011;35840;45.982;8.890;2023-12-20T04:29:39;4.45;;;1.85;;
49948;SDS011;35840;45.982;8.890;2023-12-20T04:32:06;11.05;;;2.17;;
49948;SDS011;35840;45.982;8.890;2023-12-20T04:34:33;4.15;;;1.92;;
49948;SDS011;35840;45.982;8.890;2023-12-20T04:37:00;5.50;;;2.20;;
49948;SDS011;35840;45.982;8.890;2023-12-20T04:39:28;3.50;;;2.10;;
49948;SDS011;35840;45.982;8.890;2023-12-20T04:41:55;2.88;;;2.00;;
49948;SDS011;35840;45.982;8.890;2023-12-20T04:44:22;4.47;;;2.40;;
49948;SDS011;35840;45.982;8.890;2023-12-20T04:46:49;2.75;;;1.98;;
49948;SDS011;35840;45.982;8.890;2023-12-20T04:49:16;2.83;;;1.77;;
49948;SDS011;35840;45.982;8.890;2023-12-20T04:51:42;4.10;;;2.45;;
49948;SDS011;35840;45.982;8.890;2023-12-20T04:54:09;4.38;;;2.75;;
49948;SDS011;35840;45.982;8.890;2023-12-20T04:56:37;5.88;;;3.65;;
49948;SDS011;35840;45.982;8.890;2023-12-20T04:59:04;5.75;;;3.90;;
49948;SDS011;35840;45.982;8.890;2023-12-20T05:01:30;7.25;;;3.92;;
49948;SDS011;35840;45.982;8.890;2023-12-20T05:03:57;6.93;;;4.60;;
49948;SDS011;35840;45.982;8.890;2023-12-20T05:06:24;6.13;;;4.20;;
49948;SDS011;35840;45.982;8.890;2023-12-20T05:08:51;5.82;;;4.60;;
49948;SDS011;35840;45.982;8.890;2023-12-20T05:11:18;4.97;;;3.42;;
49948;SDS011;35840;45.982;8.890;2023-12-20T05:13:45;4.55;;;3.30;;
49948;SDS011;35840;45.982;8.890;2023-12-20T05:16:16;5.68;;;3.20;;
49948;SDS011;35840;45.982;8.890;2023-12-20T05:18:45;4.10;;;3.05;;
49948;SDS011;35840;45.982;8.890;2023-12-20T05:21:12;5.45;;;3.33;;
49948;SDS011;35840;45.982;8.890;2023-12-20T05:23:39;5.68;;;3.35;;
49948;SDS011;35840;45.982;8.890;2023-12-20T05:26:05;3.67;;;2.95;;
49948;SDS011;35840;45.982;8.890;2023-12-20T05:28:32;4.85;;;3.10;;
49948;SDS011;35840;45.982;8.890;2023-12-20T05:30:59;4.10;;;2.97;;
49948;SDS011;35840;45.982;8.890;2023-12-20T05:33:27;6.43;;;3.53;;
49948;SDS011;35840;45.982;8.890;2023-12-20T05:35:53;4.40;;;3.25;;
49948;SDS011;35840;45.982;8.890;2023-12-20T05:38:20;4.90;;;2.97;;
49948;SDS011;35840;45.982;8.890;2023-12-20T05:40:47;3.13;;;2.72;;
49948;SDS011;35840;45.982;8.890;2023-12-20T05:43:14;6.65;;;2.53;;
49948;SDS011;35840;45.982;8.890;2023-12-20T05:45:40;4.20;;;2.67;;
49948;SDS011;35840;45.982;8.890;2023-12-20T05:48:08;7.35;;;2.80;;
49948;SDS011;35840;45.982;8.890;2023-12-20T05:50:35;6.35;;;3.00;;
49948;SDS011;35840;45.982;8.890;2023-12-20T05:53:03;5.43;;;2.78;;
49948;SDS011;35840;45.982;8.890;2023-12-20T05:55:30;5.32;;;3.25;;
49948;SDS011;35840;45.982;8.890;2023-12-20T05:57:57;5.00;;;3.20;;
49948;SDS011;35840;45.982;8.890;2023-12-20T06:00:24;6.30;;;3.35;;
49948;SDS011;35840;45.982;8.890;2023-12-20T06:02:51;4.90;;;2.88;;
49948;SDS011;35840;45.982;8.890;2023-12-20T06:05:18;7.45;;;3.60;;
49948;SDS011;35840;45.982;8.890;2023-12-20T06:07:45;4.97;;;2.95;;
49948;SDS011;35840;45.982;8.890;2023-12-20T06:10:15;4.22;;;2.80;;
49948;SDS011;35840;45.982;8.890;2023-12-20T06:12:43;4.47;;;2.95;;
49948;SDS011;35840;45.982;8.890;2023-12-20T06:15:10;5.20;;;2.70;;
49948;SDS011;35840;45.982;8.890;2023-12-20T06:17:36;4.75;;;2.40;;
49948;SDS011;35840;45.982;8.890;2023-12-20T06:20:04;4.90;;;2.58;;
49948;SDS011;35840;45.982;8.890;2023-12-20T06:22:34;5.35;;;2.88;;
49948;SDS011;35840;45.982;8.890;2023-12-20T06:25:02;3.85;;;2.92;;
49948;SDS011;35840;45.982;8.890;2023-12-20T06:27:29;3.70;;;2.40;;
49948;SDS011;35840;45.982;8.890;2023-12-20T06:29:58;4.15;;;2.97;;
49948;SDS011;35840;45.982;8.890;2023-12-20T06:32:25;3.50;;;2.50;;
49948;SDS011;35840;45.982;8.890;2023-12-20T06:34:52;3.60;;;2.40;;
49948;SDS011;35840;45.982;8.890;2023-12-20T06:37:19;3.00;;;2.42;;
49948;SDS011;35840;45.982;8.890;2023-12-20T06:39:46;5.70;;;3.70;;
49948;SDS011;35840;45.982;8.890;2023-12-20T06:42:13;3.60;;;2.85;;
49948;SDS011;35840;45.982;8.890;2023-12-20T06:44:40;4.78;;;2.38;;
49948;SDS011;35840;45.982;8.890;2023-12-20T06:47:07;5.55;;;2.67;;
49948;SDS011;35840;45.982;8.890;2023-12-20T06:49:34;4.35;;;2.55;;
49948;SDS011;35840;45.982;8.890;2023-12-20T06:52:01;3.35;;;3.05;;
49948;SDS011;35840;45.982;8.890;2023-12-20T06:54:28;4.03;;;2.22;;
49948;SDS011;35840;45.982;8.890;2023-12-20T06:56:55;5.28;;;2.53;;
49948;SDS011;35840;45.982;8.890;2023-12-20T06:59:22;3.33;;;2.22;;
49948;SDS011;35840;45.982;8.890;2023-12-20T07:01:49;4.10;;;2.35;;
49948;SDS011;35840;45.982;8.890;2023-12-20T07:04:16;10.77;;;3.17;;
49948;SDS011;35840;45.982;8.890;2023-12-20T07:06:47;3.45;;;2.28;;
49948;SDS011;35840;45.982;8.890;2023-12-20T07:09:18;5.07;;;2.50;;
49948;SDS011;35840;45.982;8.890;2023-12-20T07:11:44;3.53;;;2.47;;
49948;SDS011;35840;45.982;8.890;2023-12-20T07:14:11;4.65;;;2.55;;
49948;SDS011;35840;45.982;8.890;2023-12-20T07:16:38;3.13;;;2.10;;
49948;SDS011;35840;45.982;8.890;2023-12-20T07:19:05;5.40;;;2.53;;
49948;SDS011;35840;45.982;8.890;2023-12-20T07:21:32;4.97;;;2.90;;
49948;SDS011;35840;45.982;8.890;2023-12-20T07:23:59;13.88;;;6.28;;
49948;SDS011;35840;45.982;8.890;2023-12-20T07:26:25;7.97;;;4.50;;
49948;SDS011;35840;45.982;8.890;2023-12-20T07:28:52;5.78;;;3.60;;
49948;SDS011;35840;45.982;8.890;2023-12-20T07:31:19;8.48;;;5.32;;
49948;SDS011;35840;45.982;8.890;2023-12-20T07:33:46;12.90;;;5.47;;
49948;SDS011;35840;45.982;8.890;2023-12-20T07:36:13;8.40;;;4.97;;
49948;SDS011;35840;45.982;8.890;2023-12-20T07:38:40;9.88;;;4.88;;
49948;SDS011;35840;45.982;8.890;2023-12-20T07:41:09;10.85;;;4.22;;
49948;SDS011;35840;45.982;8.890;2023-12-20T07:43:36;7.25;;;4.63;;
49948;SDS011;35840;45.982;8.890;2023-12-20T07:46:04;10.98;;;7.03;;
49948;SDS011;35840;45.982;8.890;2023-12-20T07:48:34;17.30;;;9.13;;
49948;SDS011;35840;45.982;8.890;2023-12-20T07:51:02;9.45;;;5.38;;
49948;SDS011;35840;45.982;8.890;2023-12-20T07:53:30;17.15;;;4.80;;
49948;SDS011;35840;45.982;8.890;2023-12-20T07:55:56;6.75;;;4.60;;
49948;SDS011;35840;45.982;8.890;2023-12-20T07:58:23;7.55;;;4.18;;
49948;SDS011;35840;45.982;8.890;2023-12-20T08:01:06;9.15;;;4.80;;
49948;SDS011;35840;45.982;8.890;2023-12-20T08:03:33;7.50;;;4.95;;
49948;SDS011;35840;45.982;8.890;2023-12-20T08:06:00;6.28;;;3.67;;
49948;SDS011;35840;45.982;8.890;2023-12-20T08:08:27;7.82;;;3.80;;
49948;SDS011;35840;45.982;8.890;2023-12-20T08:10:54;8.60;;;4.85;;
49948;SDS011;35840;45.982;8.890;2023-12-20T08:13:21;8.88;;;3.92;;
49948;SDS011;35840;45.982;8.890;2023-12-20T08:15:52;7.18;;;4.30;;
49948;SDS011;35840;45.982;8.890;2023-12-20T08:18:20;8.02;;;4.18;;
49948;SDS011;35840;45.982;8.890;2023-12-20T08:20:47;6.88;;;3.92;;
49948;SDS011;35840;45.982;8.890;2023-12-20T08:23:15;6.03;;;3.97;;
49948;SDS011;35840;45.982;8.890;2023-12-20T08:25:42;5.15;;;3.58;;
49948;SDS011;35840;45.982;8.890;2023-12-20T08:28:08;8.98;;;3.70;;
49948;SDS011;35840;45.982;8.890;2023-12-20T08:30:35;8.70;;;5.45;;
49948;SDS011;35840;45.982;8.890;2023-12-20T08:33:02;9.85;;;4.82;;
49948;SDS011;35840;45.982;8.890;2023-12-20T08:35:29;13.40;;;6.72;;
49948;SDS011;35840;45.982;8.890;2023-12-20T08:37:56;13.55;;;6.25;;
49948;SDS011;35840;45.982;8.890;2023-12-20T08:40:23;9.85;;;7.15;;
49948;SDS011;35840;45.982;8.890;2023-12-20T08:42:50;10.15;;;5.65;;
49948;SDS011;35840;45.982;8.890;2023-12-20T08:45:17;10.40;;;5.65;;
49948;SDS011;35840;45.982;8.890;2023-12-20T08:47:44;11.70;;;6.13;;
49948;SDS011;35840;45.982;8.890;2023-12-20T08:50:12;9.35;;;5.43;;
49948;SDS011;35840;45.982;8.890;2023-12-20T08:52:39;8.60;;;4.53;;
49948;SDS011;35840;45.982;8.890;2023-12-20T08:55:06;6.97;;;4.40;;
49948;SDS011;35840;45.982;8.890;2023-12-20T08:57:34;12.93;;;4.75;;
49948;SDS011;35840;45.982;8.890;2023-12-20T09:00:01;11.10;;;4.75;;
49948;SDS011;35840;45.982;8.890;2023-12-20T09:02:27;6.95;;;3.53;;
49948;SDS011;35840;45.982;8.890;2023-12-20T09:04:55;7.43;;;4.07;;
49948;SDS011;35840;45.982;8.890;2023-12-20T09:09:50;6.47;;;3.20;;
49948;SDS011;35840;45.982;8.890;2023-12-20T09:12:18;10.68;;;5.45;;
49948;SDS011;35840;45.982;8.890;2023-12-20T09:14:46;8.30;;;5.20;;
49948;SDS011;35840;45.982;8.890;2023-12-20T09:17:14;8.52;;;4.65;;
49948;SDS011;35840;45.982;8.890;2023-12-20T09:19:43;8.68;;;5.05;;
49948;SDS011;35840;45.982;8.890;2023-12-20T09:22:12;12.65;;;6.30;;
49948;SDS011;35840;45.982;8.890;2023-12-20T09:24:39;10.15;;;6.63;;
49948;SDS011;35840;45.982;8.890;2023-12-20T09:27:06;8.43;;;5.82;;
49948;SDS011;35840;45.982;8.890;2023-12-20T09:29:33;11.32;;;5.28;;
49948;SDS011;35840;45.982;8.890;2023-12-20T09:32:00;7.28;;;4.45;;
49948;SDS011;35840;45.982;8.890;2023-12-20T09:34:27;10.07;;;5.05;;
49948;SDS011;35840;45.982;8.890;2023-12-20T09:36:54;14.20;;;5.53;;
49948;SDS011;35840;45.982;8.890;2023-12-20T09:39:21;9.82;;;5.53;;
49948;SDS011;35840;45.982;8.890;2023-12-20T09:42:06;9.65;;;5.65;;
49948;SDS011;35840;45.982;8.890;2023-12-20T09:44:34;8.07;;;4.55;;
49948;SDS011;35840;45.982;8.890;2023-12-20T09:47:03;7.80;;;4.57;;
49948;SDS011;35840;45.982;8.890;2023-12-20T09:49:30;8.57;;;5.50;;
49948;SDS011;35840;45.982;8.890;2023-12-20T09:51:59;8.18;;;5.25;;
49948;SDS011;35840;45.982;8.890;2023-12-20T09:54:28;7.82;;;4.72;;
49948;SDS011;35840;45.982;8.890;2023-12-20T09:56:55;6.15;;;4.50;;
49948;SDS011;35840;45.982;8.890;2023-12-20T09:59:22;24.20;;;5.40;;
49948;SDS011;35840;45.982;8.890;2023-12-20T10:01:49;6.78;;;5.05;;
49948;SDS011;35840;45.982;8.890;2023-12-20T10:04:21;8.50;;;4.35;;
49948;SDS011;35840;45.982;8.890;2023-12-20T10:06:55;5.50;;;4.53;;
49948;SDS011;35840;45.982;8.890;2023-12-20T10:09:23;7.30;;;4.63;;
49948;SDS011;35840;45.982;8.890;2023-12-20T10:11:53;12.38;;;5.03;;
49948;SDS011;35840;45.982;8.890;2023-12-20T10:14:21;7.65;;;4.85;;
49948;SDS011;35840;45.982;8.890;2023-12-20T10:16:49;7.30;;;4.30;;
49948;SDS011;35840;45.982;8.890;2023-12-20T10:19:17;10.73;;;5.78;;
49948;SDS011;35840;45.982;8.890;2023-12-20T10:21:44;8.85;;;5.53;;
49948;SDS011;35840;45.982;8.890;2023-12-20T10:24:16;14.73;;;6.00;;
49948;SDS011;35840;45.982;8.890;2023-12-20T10:26:44;14.50;;;5.30;;
49948;SDS011;35840;45.982;8.890;2023-12-20T10:29:11;10.60;;;6.07;;
49948;SDS011;35840;45.982;8.890;2023-12-20T10:31:38;8.68;;;5.40;;
49948;SDS011;35840;45.982;8.890;2023-12-20T10:34:09;10.30;;;4.10;;
49948;SDS011;35840;45.982;8.890;2023-12-20T10:36:36;6.78;;;4.43;;
49948;SDS011;35840;45.982;8.890;2023-12-20T10:39:03;10.48;;;4.68;;
49948;SDS011;35840;45.982;8.890;2023-12-20T10:41:34;5.90;;;4.22;;
49948;SDS011;35840;45.982;8.890;2023-12-20T10:44:07;9.70;;;4.75;;
49948;SDS011;35840;45.982;8.890;2023-12-20T10:46:36;8.30;;;4.75;;
49948;SDS011;35840;45.982;8.890;2023-12-20T10:49:06;5.93;;;4.00;;
49948;SDS011;35840;45.982;8.890;2023-12-20T10:51:35;9.02;;;5.00;;
49948;SDS011;35840;45.982;8.890;2023-12-20T10:54:03;10.52;;;4.78;;
49948;SDS011;35840;45.982;8.890;2023-12-20T10:56:32;7.40;;;4.22;;
49948;SDS011;35840;45.982;8.890;2023-12-20T10:58:59;4.90;;;3.38;;
49948;SDS011;35840;45.982;8.890;2023-12-20T11:01:32;8.02;;;4.72;;
49948;SDS011;35840;45.982;8.890;2023-12-20T11:04:01;7.28;;;4.57;;
49948;SDS011;35840;45.982;8.890;2023-12-20T11:09:23;10.43;;;4.65;;
49948;SDS011;35840;45.982;8.890;2023-12-20T11:14:45;9.35;;;5.40;;
49948;SDS011;35840;45.982;8.890;2023-12-20T11:17:13;11.13;;;5.78;;
49948;SDS011;35840;45.982;8.890;2023-12-20T11:20:03;8.65;;;5.22;;
49948;SDS011;35840;45.982;8.890;2023-12-20T11:22:31;15.20;;;5.80;;
49948;SDS011;35840;45.982;8.890;2023-12-20T11:25:05;12.73;;;5.35;;
49948;SDS011;35840;45.982;8.890;2023-12-20T11:27:35;6.50;;;4.57;;
49948;SDS011;35840;45.982;8.890;2023-12-20T11:30:03;9.32;;;5.25;;
49948;SDS011;35840;45.982;8.890;2023-12-20T11:32:34;8.18;;;4.90;;
49948;SDS011;35840;45.982;8.890;2023-12-20T11:37:35;10.38;;;5.45;;
49948;SDS011;35840;45.982;8.890;2023-12-20T11:40:07;8.32;;;5.03;;
49948;SDS011;35840;45.982;8.890;2023-12-20T11:42:41;7.47;;;4.93;;
49948;SDS011;35840;45.982;8.890;2023-12-20T11:45:16;8.43;;;4.82;;
49948;SDS011;35840;45.982;8.890;2023-12-20T11:47:46;8.32;;;4.22;;
49948;SDS011;35840;45.982;8.890;2023-12-20T11:50:17;6.50;;;4.13;;
49948;SDS011;35840;45.982;8.890;2023-12-20T11:52:45;7.38;;;3.80;;
49948;SDS011;35840;45.982;8.890;2023-12-20T11:55:12;6.95;;;4.25;;
49948;SDS011;35840;45.982;8.890;2023-12-20T11:57:39;6.70;;;4.10;;
49948;SDS011;35840;45.982;8.890;2023-12-20T12:00:06;9.23;;;4.30;;
49948;SDS011;35840;45.982;8.890;2023-12-20T12:02:39;6.60;;;3.90;;
49948;SDS011;35840;45.982;8.890;2023-12-20T12:05:06;6.30;;;3.88;;
49948;SDS011;35840;45.982;8.890;2023-12-20T12:07:34;7.15;;;3.60;;
49948;SDS011;35840;45.982;8.890;2023-12-20T12:10:02;6.47;;;3.55;;
49948;SDS011;35840;45.982;8.890;2023-12-20T12:12:32;6.50;;;3.72;;
49948;SDS011;35840;45.982;8.890;2023-12-20T12:14:59;5.07;;;3.47;;
49948;SDS011;35840;45.982;8.890;2023-12-20T12:17:26;9.77;;;4.35;;
49948;SDS011;35840;45.982;8.890;2023-12-20T12:20:01;5.90;;;3.90;;
49948;SDS011;35840;45.982;8.890;2023-12-20T12:22:32;6.63;;;4.68;;
49948;SDS011;35840;45.982;8.890;2023-12-20T12:25:09;6.25;;;4.13;;
49948;SDS011;35840;45.982;8.890;2023-12-20T12:27:41;10.02;;;3.80;;
49948;SDS011;35840;45.982;8.890;2023-12-20T12:30:09;7.18;;;4.07;;
49948;SDS011;35840;45.982;8.890;2023-12-20T12:32:36;5.47;;;4.00;;
49948;SDS011;35840;45.982;8.890;2023-12-20T12:35:05;7.30;;;4.18;;
49948;SDS011;35840;45.982;8.890;2023-12-20T12:37:39;6.55;;;4.38;;
49948;SDS011;35840;45.982;8.890;2023-12-20T12:40:10;6.32;;;3.45;;
49948;SDS011;35840;45.982;8.890;2023-12-20T12:42:39;8.77;;;4.47;;
49948;SDS011;35840;45.982;8.890;2023-12-20T12:45:07;4.80;;;3.03;;
49948;SDS011;35840;45.982;8.890;2023-12-20T12:47:34;5.72;;;3.45;;
49948;SDS011;35840;45.982;8.890;2023-12-20T12:50:01;7.03;;;3.67;;
49948;SDS011;35840;45.982;8.890;2023-12-20T12:52:30;6.05;;;3.65;;
49948;SDS011;35840;45.982;8.890;2023-12-20T12:54:57;7.43;;;3.15;;
49948;SDS011;35840;45.982;8.890;2023-12-20T12:57:24;5.22;;;3.33;;
49948;SDS011;35840;45.982;8.890;2023-12-20T12:59:51;9.82;;;3.22;;
49948;SDS011;35840;45.982;8.890;2023-12-20T13:02:18;6.70;;;3.47;;
49948;SDS011;35840;45.982;8.890;2023-12-20T13:04:45;4.85;;;3.67;;
49948;SDS011;35840;45.982;8.890;2023-12-20T13:07:12;4.40;;;3.42;;
49948;SDS011;35840;45.982;8.890;2023-12-20T13:09:40;5.30;;;4.10;;
49948;SDS011;35840;45.982;8.890;2023-12-20T13:12:07;5.30;;;3.42;;
49948;SDS011;35840;45.982;8.890;2023-12-20T13:14:34;4.50;;;3.45;;
49948;SDS011;35840;45.982;8.890;2023-12-20T13:17:04;7.45;;;3.70;;
49948;SDS011;35840;45.982;8.890;2023-12-20T13:19:31;8.60;;;4.13;;
49948;SDS011;35840;45.982;8.890;2023-12-20T13:21:58;7.55;;;2.92;;
49948;SDS011;35840;45.982;8.890;2023-12-20T13:24:25;4.57;;;2.30;;
49948;SDS011;35840;45.982;8.890;2023-12-20T13:26:52;3.28;;;1.52;;
49948;SDS011;35840;45.982;8.890;2023-12-20T13:29:19;3.15;;;1.00;;
49948;SDS011;35840;45.982;8.890;2023-12-20T13:31:46;3.85;;;0.47;;
49948;SDS011;35840;45.982;8.890;2023-12-20T13:34:13;1.27;;;0.30;;
49948;SDS011;35840;45.982;8.890;2023-12-20T13:36:40;0.20;;;0.20;;
49948;SDS011;35840;45.982;8.890;2023-12-20T13:39:07;1.83;;;0.30;;
49948;SDS011;35840;45.982;8.890;2023-12-20T13:41:34;0.10;;;0.10;;
49948;SDS011;35840;45.982;8.890;2023-12-20T13:44:01;0.50;;;0.35;;
49948;SDS011;35840;45.982;8.890;2023-12-20T13:46:29;0.98;;;0.32;;
49948;SDS011;35840;45.982;8.890;2023-12-20T13:48:58;1.10;;;0.30;;
49948;SDS011;35840;45.982;8.890;2023-12-20T13:51:25;0.68;;;0.40;;
49948;SDS011;35840;45.982;8.890;2023-12-20T13:53:51;3.63;;;0.85;;
49948;SDS011;35840;45.982;8.890;2023-12-20T13:56:18;0.40;;;0.40;;
49948;SDS011;35840;45.982;8.890;2023-12-20T13:58:46;0.88;;;0.57;;
49948;SDS011;35840;45.982;8.890;2023-12-20T14:01:13;2.63;;;0.93;;
49948;SDS011;35840;45.982;8.890;2023-12-20T14:03:40;9.75;;;1.25;;
49948;SDS011;35840;45.982;8.890;2023-12-20T14:06:07;2.47;;;0.28;;
49948;SDS011;35840;45.982;8.890;2023-12-20T14:08:34;0.40;;;0.30;;
49948;SDS011;35840;45.982;8.890;2023-12-20T14:11:02;0.45;;;0.32;;
49948;SDS011;35840;45.982;8.890;2023-12-20T14:13:29;0.38;;;0.38;;
49948;SDS011;35840;45.982;8.890;2023-12-20T14:15:56;1.88;;;0.45;;
49948;SDS011;35840;45.982;8.890;2023-12-20T14:18:23;1.05;;;0.50;;
49948;SDS011;35840;45.982;8.890;2023-12-20T14:20:49;1.48;;;0.70;;
49948;SDS011;35840;45.982;8.890;2023-12-20T14:23:17;0.93;;;0.40;;
49948;SDS011;35840;45.982;8.890;2023-12-20T14:25:44;1.98;;;0.32;;
49948;SDS011;35840;45.982;8.890;2023-12-20T14:28:18;3.22;;;0.80;;
49948;SDS011;35840;45.982;8.890;2023-12-20T14:30:46;0.43;;;0.40;;
49948;SDS011;35840;45.982;8.890;2023-12-20T14:33:13;0.43;;;0.38;;
49948;SDS011;35840;45.982;8.890;2023-12-20T14:35:40;5.35;;;0.93;;
49948;SDS011;35840;45.982;8.890;2023-12-20T14:38:11;3.00;;;1.08;;
49948;SDS011;35840;45.982;8.890;2023-12-20T14:40:41;1.48;;;0.70;;
49948;SDS011;35840;45.982;8.890;2023-12-20T14:43:08;0.80;;;0.47;;
49948;SDS011;35840;45.982;8.890;2023-12-20T14:45:35;0.35;;;0.35;;
49948;SDS011;35840;45.982;8.890;2023-12-20T14:48:02;2.55;;;0.93;;
49948;SDS011;35840;45.982;8.890;2023-12-20T14:50:29;6.70;;;1.55;;
49948;SDS011;35840;45.982;8.890;2023-12-20T14:52:56;1.10;;;0.65;;
49948;SDS011;35840;45.982;8.890;2023-12-20T14:55:23;3.63;;;1.10;;
49948;SDS011;35840;45.982;8.890;2023-12-20T14:57:50;4.53;;;1.27;;
49948;SDS011;35840;45.982;8.890;2023-12-20T15:00:17;3.10;;;0.95;;
49948;SDS011;35840;45.982;8.890;2023-12-20T15:02:45;2.42;;;0.93;;